Time,TemperatureF,DewpointF,PressureIn,WindDirection,WindDirectionDegrees,WindSpeedMPH,WindSpeedGustMPH,Humidity,HourlyPrecipIn,Conditions,Clouds,dailyrainin,SoftwareType,DateUTC
2013-10-07 00:01:00,57.0,55.3,29.87,NNE,13,2.0,11.0,94,0.06,,SKC,0.35,VWS V13.00,2013-10-07 05:01:00,
2013-10-07 00:06:00,57.0,55.0,29.87,NNW,340,1.0,8.0,93,0.06,,SKC,0.00,VWS V13.00,2013-10-07 05:06:00,
2013-10-07 00:11:00,57.1,55.1,29.87,North,350,4.0,8.0,93,0.06,,SKC,0.00,VWS V13.00,2013-10-07 05:11:00,
2013-10-07 00:16:00,57.1,55.1,29.86,NE,35,4.0,8.0,93,0.06,,SKC,0.00,VWS V13.00,2013-10-07 05:16:00,
2013-10-07 00:21:00,57.1,55.1,29.86,NNE,28,2.0,8.0,93,0.06,,SKC,0.00,VWS V13.00,2013-10-07 05:21:00,
2013-10-07 00:26:00,57.1,55.1,29.86,NNE,30,1.0,8.0,93,0.06,,SKC,0.00,VWS V13.00,2013-10-07 05:26:00,
2013-10-07 00:31:00,57.1,55.1,29.86,NE,44,4.0,8.0,93,0.06,,SKC,0.00,VWS V13.00,2013-10-07 05:31:00,
2013-10-07 00:36:00,57.1,55.1,29.86,NE,44,1.0,8.0,93,0.00,,SKC,0.00,VWS V13.00,2013-10-07 05:36:00,
2013-10-07 00:41:00,57.1,55.1,29.86,NNE,19,4.0,8.0,93,0.00,,SKC,0.00,VWS V13.00,2013-10-07 05:41:00,
2013-10-07 00:46:00,57.1,55.1,29.85,NNE,33,5.0,10.0,93,0.00,,SKC,0.00,VWS V13.00,2013-10-07 05:46:00,
2013-10-07 00:51:00,57.1,55.1,29.86,NE,46,6.0,10.0,93,0.00,,SKC,0.00,VWS V13.00,2013-10-07 05:51:00,
2013-10-07 00:56:00,57.1,55.1,29.86,NE,42,6.0,10.0,93,0.00,,SKC,0.00,VWS V13.00,2013-10-07 05:56:00,
2013-10-07 01:01:00,57.1,55.1,29.86,NNE,16,1.0,10.0,93,0.00,,SKC,0.00,VWS V13.00,2013-10-07 06:01:00,
2013-10-07 01:06:00,57.1,55.1,29.86,North,5,1.0,7.0,93,0.00,,SKC,0.00,VWS V13.00,2013-10-07 06:06:00,
2013-10-07 01:11:00,57.1,55.1,29.86,NNE,28,5.0,7.0,93,0.00,,SKC,0.00,VWS V13.00,2013-10-07 06:11:00,
2013-10-07 01:16:00,57.0,54.7,29.87,North,5,4.0,8.0,92,0.00,,SKC,0.00,VWS V13.00,2013-10-07 06:16:00,
2013-10-07 01:21:00,57.0,54.7,29.87,North,360,0.0,9.0,92,0.00,,SKC,0.00,VWS V13.00,2013-10-07 06:21:00,
2013-10-07 01:26:00,57.0,55.0,29.87,North,9,0.0,9.0,93,0.00,,SKC,0.00,VWS V13.00,2013-10-07 06:26:00,
2013-10-07 01:31:00,57.0,54.7,29.87,NNE,31,4.0,9.0,92,0.00,,SKC,0.00,VWS V13.00,2013-10-07 06:31:00,
2013-10-07 01:36:00,57.0,55.0,29.87,NNE,16,2.0,2.0,93,0.00,,SKC,0.00,VWS V13.00,2013-10-07 06:36:00,
2013-10-07 01:41:00,56.9,54.9,29.86,NNE,27,1.0,5.0,93,0.00,,SKC,0.00,VWS V13.00,2013-10-07 06:41:00,
2013-10-07 01:46:00,56.9,54.9,29.86,NE,38,0.0,5.0,93,0.01,,SKC,0.01,VWS V13.00,2013-10-07 06:46:00,
2013-10-07 01:51:00,56.9,54.9,29.86,NE,36,5.0,6.0,93,0.01,,SKC,0.01,VWS V13.00,2013-10-07 06:51:00,
2013-10-07 01:56:00,56.9,54.9,29.87,North,11,2.0,7.0,93,0.01,,SKC,0.01,VWS V13.00,2013-10-07 06:56:00,
2013-10-07 02:01:00,56.9,54.6,29.87,NE,45,6.0,10.0,92,0.01,,SKC,0.01,VWS V13.00,2013-10-07 07:01:00,
2013-10-07 02:06:00,56.9,54.6,29.87,North,11,4.0,7.0,92,0.01,,SKC,0.01,VWS V13.00,2013-10-07 07:06:00,
2013-10-07 02:11:00,56.9,54.6,29.87,North,5,2.0,8.0,92,0.01,,SKC,0.01,VWS V13.00,2013-10-07 07:11:00,
2013-10-07 02:16:00,56.9,54.6,29.87,NE,39,4.0,8.0,92,0.01,,SKC,0.01,VWS V13.00,2013-10-07 07:16:00,
2013-10-07 02:21:00,56.8,54.5,29.87,NNE,21,0.0,8.0,92,0.01,,SKC,0.01,VWS V13.00,2013-10-07 07:21:00,
2013-10-07 02:26:00,56.7,54.7,29.87,NE,34,2.0,8.0,93,0.01,,SKC,0.01,VWS V13.00,2013-10-07 07:26:00,
2013-10-07 02:31:00,56.6,54.6,29.87,NNE,22,1.0,8.0,93,0.01,,SKC,0.01,VWS V13.00,2013-10-07 07:31:00,
2013-10-07 02:36:00,56.6,54.6,29.87,NNE,24,0.0,4.0,93,0.01,,SKC,0.01,VWS V13.00,2013-10-07 07:36:00,
2013-10-07 02:41:00,56.6,54.9,29.86,NNE,27,1.0,5.0,94,0.01,,SKC,0.01,VWS V13.00,2013-10-07 07:41:00,
2013-10-07 02:46:00,56.6,54.9,29.87,NE,40,1.0,5.0,94,0.01,,SKC,0.01,VWS V13.00,2013-10-07 07:46:00,
2013-10-07 02:51:00,56.6,54.9,29.86,NE,34,2.0,5.0,94,0.01,,SKC,0.01,VWS V13.00,2013-10-07 07:51:00,
2013-10-07 02:56:00,56.7,55.0,29.87,NNE,31,1.0,5.0,94,0.01,,SKC,0.01,VWS V13.00,2013-10-07 07:56:00,
2013-10-07 03:01:00,56.7,55.0,29.87,NNE,31,0.0,5.0,94,0.01,,SKC,0.01,VWS V13.00,2013-10-07 08:01:00,
2013-10-07 03:06:00,56.7,55.0,29.87,NNE,31,0.0,0.0,94,0.00,,SKC,0.01,VWS V13.00,2013-10-07 08:06:00,
2013-10-07 03:11:00,56.7,55.0,29.87,NNE,31,0.0,2.0,94,0.00,,SKC,0.01,VWS V13.00,2013-10-07 08:11:00,
2013-10-07 03:16:00,56.7,55.0,29.87,NNE,31,0.0,2.0,94,0.00,,SKC,0.01,VWS V13.00,2013-10-07 08:16:00,
2013-10-07 03:21:00,56.7,55.0,29.87,NNE,31,0.0,2.0,94,0.00,,SKC,0.01,VWS V13.00,2013-10-07 08:21:00,
2013-10-07 03:26:00,56.7,55.0,29.87,NNE,31,0.0,2.0,94,0.00,,SKC,0.01,VWS V13.00,2013-10-07 08:26:00,
2013-10-07 03:31:00,56.7,55.0,29.87,NNE,31,0.0,2.0,94,0.00,,SKC,0.01,VWS V13.00,2013-10-07 08:31:00,
2013-10-07 03:36:00,56.7,55.3,29.87,NNE,31,0.0,0.0,95,0.00,,SKC,0.01,VWS V13.00,2013-10-07 08:36:00,
2013-10-07 03:41:00,56.6,55.2,29.87,NNE,31,0.0,0.0,95,0.00,,SKC,0.01,VWS V13.00,2013-10-07 08:41:00,
2013-10-07 03:46:00,56.5,55.1,29.87,NNE,31,0.0,0.0,95,0.00,,SKC,0.01,VWS V13.00,2013-10-07 08:46:00,
2013-10-07 03:51:00,56.3,54.9,29.88,NNE,31,0.0,0.0,95,0.00,,SKC,0.01,VWS V13.00,2013-10-07 08:51:00,
2013-10-07 03:56:00,56.2,54.8,29.87,NNE,31,0.0,0.0,95,0.00,,SKC,0.01,VWS V13.00,2013-10-07 08:56:00,
2013-10-07 04:01:00,55.9,54.5,29.87,NNE,31,0.0,0.0,95,0.00,,SKC,0.01,VWS V13.00,2013-10-07 09:01:00,
2013-10-07 04:06:00,55.8,54.4,29.87,NNE,31,0.0,0.0,95,0.00,,SKC,0.01,VWS V13.00,2013-10-07 09:06:00,
2013-10-07 04:11:00,55.5,54.1,29.88,NNE,31,0.0,0.0,95,0.00,,SKC,0.01,VWS V13.00,2013-10-07 09:11:00,
2013-10-07 04:16:00,55.4,54.3,29.88,NNE,31,0.0,0.0,96,0.00,,SKC,0.01,VWS V13.00,2013-10-07 09:16:00,
2013-10-07 04:21:00,55.2,54.1,29.88,NNE,31,0.0,0.0,96,0.00,,SKC,0.01,VWS V13.00,2013-10-07 09:21:00,
2013-10-07 04:26:00,55.1,54.0,29.88,NNE,31,0.0,0.0,96,0.00,,SKC,0.01,VWS V13.00,2013-10-07 09:26:00,
2013-10-07 04:31:00,55.1,54.3,29.88,NNE,31,0.0,0.0,97,0.00,,SKC,0.01,VWS V13.00,2013-10-07 09:31:00,
2013-10-07 04:36:00,55.0,54.2,29.88,NNE,31,0.0,0.0,97,0.00,,SKC,0.01,VWS V13.00,2013-10-07 09:36:00,
2013-10-07 04:41:00,54.9,54.1,29.88,NNE,31,0.0,0.0,97,0.00,,SKC,0.01,VWS V13.00,2013-10-07 09:41:00,
2013-10-07 04:46:00,54.8,54.0,29.88,NNE,31,0.0,0.0,97,0.00,,SKC,0.01,VWS V13.00,2013-10-07 09:46:00,
2013-10-07 04:51:00,54.8,54.0,29.88,NNE,31,0.0,0.0,97,0.00,,SKC,0.01,VWS V13.00,2013-10-07 09:51:00,
2013-10-07 04:56:00,54.8,54.0,29.88,NNE,31,0.0,0.0,97,0.00,,SKC,0.01,VWS V13.00,2013-10-07 09:56:00,
2013-10-07 05:01:00,54.7,53.9,29.88,NNE,31,0.0,0.0,97,0.00,,SKC,0.01,VWS V13.00,2013-10-07 10:01:00,
2013-10-07 05:06:00,54.6,53.8,29.88,NNE,31,0.0,0.0,97,0.00,,SKC,0.01,VWS V13.00,2013-10-07 10:06:00,
2013-10-07 05:11:00,54.5,53.7,29.89,NNE,31,0.0,0.0,97,0.00,,SKC,0.01,VWS V13.00,2013-10-07 10:11:00,
2013-10-07 05:16:00,54.4,53.6,29.89,NNE,31,0.0,0.0,97,0.00,,SKC,0.01,VWS V13.00,2013-10-07 10:16:00,
2013-10-07 05:21:00,54.2,53.4,29.89,NNE,31,0.0,0.0,97,0.00,,SKC,0.01,VWS V13.00,2013-10-07 10:21:00,
2013-10-07 05:26:00,54.2,53.4,29.89,NNE,31,0.0,1.0,97,0.00,,SKC,0.01,VWS V13.00,2013-10-07 10:26:00,
2013-10-07 05:31:00,54.1,53.3,29.89,NNE,31,0.0,1.0,97,0.00,,SKC,0.01,VWS V13.00,2013-10-07 10:31:00,
2013-10-07 05:36:00,54.0,53.2,29.89,NNE,31,0.0,0.0,97,0.00,,SKC,0.01,VWS V13.00,2013-10-07 10:36:00,
2013-10-07 05:41:00,53.9,53.1,29.89,NNE,31,0.0,0.0,97,0.00,,SKC,0.01,VWS V13.00,2013-10-07 10:41:00,
2013-10-07 05:46:00,53.9,53.1,29.89,NNE,31,0.0,0.0,97,0.00,,SKC,0.01,VWS V13.00,2013-10-07 10:46:00,
2013-10-07 05:51:00,53.8,53.0,29.89,NNE,31,0.0,0.0,97,0.00,,SKC,0.01,VWS V13.00,2013-10-07 10:51:00,
2013-10-07 05:56:00,53.7,52.9,29.89,NNE,31,0.0,0.0,97,0.00,,SKC,0.01,VWS V13.00,2013-10-07 10:56:00,
2013-10-07 06:01:00,53.6,52.8,29.89,NNE,17,1.0,2.0,97,0.00,,SKC,0.01,VWS V13.00,2013-10-07 11:01:00,
2013-10-07 06:06:00,53.4,52.6,29.90,NNE,13,0.0,5.0,97,0.00,,SKC,0.01,VWS V13.00,2013-10-07 11:06:00,
2013-10-07 06:11:00,53.3,52.5,29.89,North,11,0.0,5.0,97,0.00,,SKC,0.01,VWS V13.00,2013-10-07 11:11:00,
2013-10-07 06:15:00,53.2,52.4,29.90,North,11,0.0,5.0,97,0.00,,SKC,0.01,VWS V13.00,2013-10-07 11:15:00,
2013-10-07 06:20:00,53.2,52.4,29.90,North,11,0.0,5.0,97,0.00,,SKC,0.01,VWS V13.00,2013-10-07 11:20:00,
2013-10-07 06:25:00,53.1,52.3,29.90,North,11,0.0,5.0,97,0.00,,SKC,0.01,VWS V13.00,2013-10-07 11:25:00,
2013-10-07 06:30:00,53.0,52.2,29.90,North,11,0.0,5.0,97,0.00,,SKC,0.01,VWS V13.00,2013-10-07 11:30:00,
2013-10-07 06:35:00,52.9,52.1,29.90,North,11,1.0,2.0,97,0.00,,SKC,0.01,VWS V13.00,2013-10-07 11:35:00,
2013-10-07 06:40:00,53.0,52.2,29.90,North,11,1.0,2.0,97,0.00,,SKC,0.01,VWS V13.00,2013-10-07 11:40:00,
2013-10-07 06:45:00,53.0,52.2,29.91,NNE,26,2.0,4.0,97,0.00,,SKC,0.01,VWS V13.00,2013-10-07 11:45:00,
2013-10-07 06:50:00,53.1,52.3,29.90,NNE,24,1.0,4.0,97,0.00,,SKC,0.01,VWS V13.00,2013-10-07 11:50:00,
2013-10-07 06:55:00,53.2,52.4,29.90,NNE,24,1.0,4.0,97,0.00,,SKC,0.01,VWS V13.00,2013-10-07 11:55:00,
2013-10-07 07:00:00,53.2,52.4,29.90,NNE,24,1.0,4.0,97,0.00,,SKC,0.01,VWS V13.00,2013-10-07 12:00:00,
2013-10-07 07:05:00,53.2,52.4,29.91,NNE,24,0.0,0.0,97,0.00,,SKC,0.01,VWS V13.00,2013-10-07 12:05:00,
2013-10-07 07:10:00,53.1,52.3,29.91,NNE,24,0.0,0.0,97,0.00,,SKC,0.01,VWS V13.00,2013-10-07 12:10:00,
2013-10-07 07:15:00,53.0,52.2,29.91,NNE,24,0.0,0.0,97,0.00,,SKC,0.01,VWS V13.00,2013-10-07 12:15:00,
2013-10-07 07:20:00,53.0,52.2,29.91,NNE,24,0.0,1.0,97,0.00,,SKC,0.01,VWS V13.00,2013-10-07 12:20:00,
2013-10-07 07:25:00,53.0,52.2,29.91,North,5,0.0,5.0,97,0.00,,SKC,0.01,VWS V13.00,2013-10-07 12:25:00,
2013-10-07 07:30:00,53.4,52.6,29.92,North,355,0.0,5.0,97,0.00,,SKC,0.01,VWS V13.00,2013-10-07 12:30:00,
2013-10-07 07:35:00,53.9,53.3,29.92,North,355,0.0,2.0,98,0.00,,SKC,0.01,VWS V13.00,2013-10-07 12:35:00,
2013-10-07 07:40:00,54.2,53.7,29.92,North,355,2.0,2.0,98,0.00,,SKC,0.01,VWS V13.00,2013-10-07 12:40:00,
2013-10-07 07:45:00,54.3,53.5,29.92,North,355,0.0,2.0,97,0.00,,SKC,0.01,VWS V13.00,2013-10-07 12:45:00,
2013-10-07 07:50:00,54.4,53.3,29.92,North,355,1.0,3.0,96,0.00,,SKC,0.01,VWS V13.00,2013-10-07 12:50:00,
2013-10-07 07:55:00,54.6,53.5,29.92,North,11,2.0,4.0,96,0.00,,SKC,0.01,VWS V13.00,2013-10-07 12:55:00,
2013-10-07 08:00:00,54.9,54.1,29.93,NE,36,1.0,4.0,97,0.00,,SKC,0.01,VWS V13.00,2013-10-07 13:00:00,
2013-10-07 08:05:00,55.4,54.3,29.93,NNE,15,2.0,7.0,96,0.00,,SKC,0.01,VWS V13.00,2013-10-07 13:05:00,
2013-10-07 08:10:00,55.7,54.3,29.93,NE,50,1.0,7.0,95,0.00,,SKC,0.01,VWS V13.00,2013-10-07 13:10:00,
2013-10-07 08:15:00,56.0,54.3,29.93,NNE,13,4.0,7.0,94,0.00,,SKC,0.01,VWS V13.00,2013-10-07 13:15:00,
2013-10-07 08:20:00,56.3,54.6,29.93,North,350,4.0,7.0,94,0.00,,SKC,0.01,VWS V13.00,2013-10-07 13:20:00,
2013-10-07 08:25:00,56.5,54.8,29.94,NNE,17,6.0,7.0,94,0.00,,SKC,0.01,VWS V13.00,2013-10-07 13:25:00,
2013-10-07 08:30:00,56.8,55.1,29.94,NE,51,9.0,9.0,94,0.00,,SKC,0.01,VWS V13.00,2013-10-07 13:30:00,
2013-10-07 08:35:00,57.1,55.1,29.94,North,355,4.0,8.0,93,0.00,,SKC,0.01,VWS V13.00,2013-10-07 13:35:00,
2013-10-07 08:40:00,57.4,55.1,29.94,NNE,15,3.0,9.0,92,0.00,,SKC,0.01,VWS V13.00,2013-10-07 13:40:00,
2013-10-07 08:45:00,57.2,54.6,29.94,NNE,13,5.0,9.0,91,0.00,,SKC,0.01,VWS V13.00,2013-10-07 13:45:00,
2013-10-07 08:50:00,56.9,54.3,29.94,NE,49,6.0,9.0,91,0.00,,SKC,0.01,VWS V13.00,2013-10-07 13:50:00,
2013-10-07 08:55:00,56.6,54.0,29.94,North,355,5.0,9.0,91,0.00,,SKC,0.01,VWS V13.00,2013-10-07 13:55:00,
2013-10-07 09:00:00,56.3,54.0,29.94,North,10,5.0,10.0,92,0.00,,SKC,0.01,VWS V13.00,2013-10-07 14:00:00,
2013-10-07 09:05:00,56.3,54.0,29.95,NNE,31,3.0,8.0,92,0.00,,SKC,0.01,VWS V13.00,2013-10-07 14:05:00,
2013-10-07 09:10:00,56.4,54.1,29.96,NE,40,5.0,8.0,92,0.00,,SKC,0.01,VWS V13.00,2013-10-07 14:10:00,
2013-10-07 09:15:00,56.7,54.4,29.95,NNE,23,6.0,9.0,92,0.00,,SKC,0.01,VWS V13.00,2013-10-07 14:15:00,
2013-10-07 09:20:00,57.2,54.6,29.95,NNE,24,2.0,10.0,91,0.00,,SKC,0.01,VWS V13.00,2013-10-07 14:20:00,
2013-10-07 09:25:00,58.1,55.5,29.95,NE,34,10.0,12.0,91,0.00,,SKC,0.01,VWS V13.00,2013-10-07 14:25:00,
2013-10-07 09:30:00,58.9,54.7,29.96,NE,43,8.0,12.0,86,0.00,,SKC,0.01,VWS V13.00,2013-10-07 14:30:00,
2013-10-07 09:35:00,59.5,55.0,29.96,NE,43,7.0,13.0,85,0.00,,SKC,0.01,VWS V13.00,2013-10-07 14:35:00,
2013-10-07 09:40:00,59.5,54.3,29.96,North,360,9.0,15.0,83,0.00,,SKC,0.01,VWS V13.00,2013-10-07 14:40:00,
2013-10-07 09:45:00,59.7,54.5,29.95,NNE,20,3.0,15.0,83,0.00,,SKC,0.01,VWS V13.00,2013-10-07 14:45:00,
2013-10-07 09:50:00,60.1,54.9,29.95,NNE,22,3.0,15.0,83,0.00,,SKC,0.01,VWS V13.00,2013-10-07 14:50:00,
2013-10-07 09:55:00,60.6,54.4,29.96,NNE,32,7.0,16.0,80,0.00,,SKC,0.01,VWS V13.00,2013-10-07 14:55:00,
2013-10-07 10:00:00,60.9,54.0,29.95,NE,55,9.0,16.0,78,0.00,,SKC,0.01,VWS V13.00,2013-10-07 15:00:00,
2013-10-07 10:05:00,61.2,53.9,29.96,NNE,24,8.0,12.0,77,0.00,,SKC,0.01,VWS V13.00,2013-10-07 15:05:00,
2013-10-07 10:10:00,61.4,52.7,29.96,NNE,12,6.0,12.0,73,0.00,,SKC,0.01,VWS V13.00,2013-10-07 15:10:00,
2013-10-07 10:15:00,61.7,52.2,29.96,NE,44,11.0,16.0,71,0.00,,SKC,0.01,VWS V13.00,2013-10-07 15:15:00,
2013-10-07 10:20:00,61.9,53.5,29.96,NE,53,10.0,16.0,74,0.00,,SKC,0.01,VWS V13.00,2013-10-07 15:20:00,
2013-10-07 10:25:00,62.0,53.6,29.95,NE,53,8.0,16.0,74,0.00,,SKC,0.01,VWS V13.00,2013-10-07 15:25:00,
2013-10-07 10:30:00,62.3,52.4,29.95,NNE,32,5.0,16.0,70,0.00,,SKC,0.01,VWS V13.00,2013-10-07 15:30:00,
2013-10-07 10:35:00,62.5,53.0,29.95,North,355,7.0,11.0,71,0.00,,SKC,0.01,VWS V13.00,2013-10-07 15:35:00,
2013-10-07 10:40:00,62.9,53.0,29.95,NNE,30,7.0,12.0,70,0.00,,SKC,0.01,VWS V13.00,2013-10-07 15:40:00,
2013-10-07 10:45:00,63.1,52.8,29.95,ENE,57,6.0,12.0,69,0.00,,SKC,0.01,VWS V13.00,2013-10-07 15:45:00,
2013-10-07 10:50:00,63.1,52.0,29.96,North,350,11.0,14.0,67,0.00,,SKC,0.01,VWS V13.00,2013-10-07 15:50:00,
2013-10-07 10:55:00,63.2,52.5,29.96,NNE,15,8.0,14.0,68,0.00,,SKC,0.01,VWS V13.00,2013-10-07 15:55:00,
2013-10-07 11:00:00,63.6,53.7,29.95,NE,39,8.0,14.0,70,0.00,,SKC,0.01,VWS V13.00,2013-10-07 16:00:00,
2013-10-07 11:05:00,63.9,52.3,29.96,NE,48,13.0,15.0,66,0.00,,SKC,0.01,VWS V13.00,2013-10-07 16:05:00,
2013-10-07 11:10:00,63.8,52.2,29.96,ENE,61,9.0,15.0,66,0.00,,SKC,0.01,VWS V13.00,2013-10-07 16:10:00,
2013-10-07 11:15:00,64.0,52.0,29.95,North,9,8.0,15.0,65,0.00,,SKC,0.01,VWS V13.00,2013-10-07 16:15:00,
2013-10-07 11:20:00,64.5,52.1,29.95,NE,55,9.0,15.0,64,0.00,,SKC,0.01,VWS V13.00,2013-10-07 16:20:00,
2013-10-07 11:25:00,64.5,51.6,29.95,NE,44,8.0,15.0,63,0.00,,SKC,0.01,VWS V13.00,2013-10-07 16:25:00,
2013-10-07 11:30:00,64.9,52.5,29.95,ENE,57,11.0,15.0,64,0.00,,SKC,0.01,VWS V13.00,2013-10-07 16:30:00,
2013-10-07 11:35:00,64.8,51.5,29.95,NE,51,7.0,14.0,62,0.00,,SKC,0.01,VWS V13.00,2013-10-07 16:35:00,
2013-10-07 11:40:00,64.6,52.6,29.95,ENE,61,12.0,14.0,65,0.00,,SKC,0.01,VWS V13.00,2013-10-07 16:40:00,
2013-10-07 11:45:00,64.7,51.8,29.95,ENE,64,9.0,14.0,63,0.00,,SKC,0.01,VWS V13.00,2013-10-07 16:45:00,
2013-10-07 11:50:00,64.7,51.4,29.95,NNE,17,4.0,14.0,62,0.00,,SKC,0.01,VWS V13.00,2013-10-07 16:50:00,
2013-10-07 11:55:00,65.0,52.1,29.95,NE,41,11.0,14.0,63,0.00,,SKC,0.01,VWS V13.00,2013-10-07 16:55:00,
2013-10-07 12:00:00,65.1,51.8,29.95,NE,40,9.0,14.0,62,0.00,,SKC,0.01,VWS V13.00,2013-10-07 17:00:00,
2013-10-07 12:05:00,65.0,53.0,29.95,NE,48,9.0,11.0,65,0.00,,SKC,0.01,VWS V13.00,2013-10-07 17:05:00,
2013-10-07 12:10:00,65.7,51.5,29.95,NE,38,7.0,13.0,60,0.00,,SKC,0.01,VWS V13.00,2013-10-07 17:10:00,
2013-10-07 12:16:00,65.6,51.4,29.95,NE,48,7.0,14.0,60,0.00,,SKC,0.01,VWS V13.00,2013-10-07 17:16:00,
2013-10-07 12:21:00,65.7,52.3,29.95,NNE,23,8.0,14.0,62,0.00,,SKC,0.01,VWS V13.00,2013-10-07 17:21:00,
2013-10-07 12:25:00,66.1,53.6,29.95,NE,55,7.0,14.0,64,0.00,,SKC,0.01,VWS V13.00,2013-10-07 17:25:00,
2013-10-07 12:30:00,66.2,53.2,29.95,NNE,23,7.0,14.0,63,0.00,,SKC,0.01,VWS V13.00,2013-10-07 17:30:00,
2013-10-07 12:35:00,66.2,51.9,29.94,NW,325,7.0,9.0,60,0.00,,SKC,0.01,VWS V13.00,2013-10-07 17:35:00,
2013-10-07 12:40:00,66.1,52.3,29.94,NE,34,9.0,14.0,61,0.00,,SKC,0.01,VWS V13.00,2013-10-07 17:40:00,
2013-10-07 12:45:00,66.1,51.4,29.95,NNW,346,6.0,14.0,59,0.00,,SKC,0.01,VWS V13.00,2013-10-07 17:45:00,
2013-10-07 12:50:00,66.3,52.0,29.94,NW,319,6.0,14.0,60,0.00,,SKC,0.01,VWS V13.00,2013-10-07 17:50:00,
2013-10-07 12:55:00,66.3,52.5,29.94,ENE,62,7.0,14.0,61,0.00,,SKC,0.01,VWS V13.00,2013-10-07 17:55:00,
2013-10-07 13:01:00,66.7,51.9,29.94,NW,323,6.0,14.0,59,0.00,,SKC,0.01,VWS V13.00,2013-10-07 18:01:00,
2013-10-07 13:06:00,66.8,52.9,29.93,NNW,339,6.0,10.0,61,0.00,,SKC,0.01,VWS V13.00,2013-10-07 18:06:00,
2013-10-07 13:11:00,67.1,51.8,29.93,NNE,17,5.0,10.0,58,0.00,,SKC,0.01,VWS V13.00,2013-10-07 18:11:00,
2013-10-07 13:16:00,67.6,53.2,29.93,NW,319,2.0,10.0,60,0.00,,SKC,0.01,VWS V13.00,2013-10-07 18:16:00,
2013-10-07 13:21:00,67.8,53.9,29.93,NE,40,11.0,13.0,61,0.00,,SKC,0.01,VWS V13.00,2013-10-07 18:21:00,
2013-10-07 13:26:00,68.1,51.8,29.93,NNE,12,12.0,13.0,56,0.00,,SKC,0.01,VWS V13.00,2013-10-07 18:26:00,
2013-10-07 13:31:00,68.1,52.8,29.93,NE,39,5.0,13.0,58,0.00,,SKC,0.01,VWS V13.00,2013-10-07 18:31:00,
2013-10-07 13:36:00,68.4,53.1,29.93,North,350,6.0,13.0,58,0.00,,SKC,0.01,VWS V13.00,2013-10-07 18:36:00,
2013-10-07 13:41:00,68.5,54.5,29.92,NNE,22,5.0,14.0,61,0.00,,SKC,0.01,VWS V13.00,2013-10-07 18:41:00,
2013-10-07 13:46:00,68.8,53.4,29.92,NE,35,5.0,14.0,58,0.00,,SKC,0.01,VWS V13.00,2013-10-07 18:46:00,
2013-10-07 13:51:00,69.0,53.6,29.92,North,5,4.0,14.0,58,0.00,,SKC,0.01,VWS V13.00,2013-10-07 18:51:00,
2013-10-07 13:56:00,69.1,54.2,29.92,NNW,336,7.0,14.0,59,0.00,,SKC,0.01,VWS V13.00,2013-10-07 18:56:00,
2013-10-07 14:01:00,69.3,54.4,29.92,NNE,25,7.0,14.0,59,0.00,,SKC,0.01,VWS V13.00,2013-10-07 19:01:00,
2013-10-07 14:06:00,69.8,51.9,29.92,North,5,11.0,13.0,53,0.00,,SKC,0.01,VWS V13.00,2013-10-07 19:06:00,
2013-10-07 14:11:00,69.8,51.9,29.92,NNE,27,7.0,13.0,53,0.00,,SKC,0.01,VWS V13.00,2013-10-07 19:11:00,
2013-10-07 14:16:00,69.9,51.0,29.92,NE,52,14.0,15.0,51,0.00,,SKC,0.01,VWS V13.00,2013-10-07 19:16:00,
2013-10-07 14:21:00,69.8,51.9,29.92,NNE,19,5.0,18.0,53,0.00,,SKC,0.01,VWS V13.00,2013-10-07 19:21:00,
2013-10-07 14:26:00,69.8,50.9,29.92,NE,43,8.0,18.0,51,0.00,,SKC,0.01,VWS V13.00,2013-10-07 19:26:00,
2013-10-07 14:31:00,69.7,51.8,29.92,NE,46,10.0,18.0,53,0.00,,SKC,0.01,VWS V13.00,2013-10-07 19:31:00,
2013-10-07 14:36:00,69.7,52.3,29.92,NE,50,8.0,11.0,54,0.00,,SKC,0.01,VWS V13.00,2013-10-07 19:36:00,
2013-10-07 14:41:00,69.9,52.0,29.92,NE,34,11.0,12.0,53,0.00,,SKC,0.01,VWS V13.00,2013-10-07 19:41:00,
2013-10-07 14:46:00,69.9,52.0,29.92,NNE,26,5.0,16.0,53,0.00,,SKC,0.01,VWS V13.00,2013-10-07 19:46:00,
2013-10-07 14:50:00,69.9,51.5,29.92,NE,49,9.0,16.0,52,0.00,,SKC,0.01,VWS V13.00,2013-10-07 19:50:00,
2013-10-07 14:55:00,69.8,50.9,29.92,North,5,7.0,16.0,51,0.00,,SKC,0.01,VWS V13.00,2013-10-07 19:55:00,
2013-10-07 15:00:00,70.0,52.1,29.92,NE,49,7.0,16.0,53,0.00,,SKC,0.01,VWS V13.00,2013-10-07 20:00:00,
2013-10-07 15:05:00,70.2,52.3,29.92,North,355,6.0,11.0,53,0.00,,SKC,0.01,VWS V13.00,2013-10-07 20:05:00,
2013-10-07 15:10:00,70.2,52.3,29.92,North,11,4.0,11.0,53,0.00,,SKC,0.01,VWS V13.00,2013-10-07 20:10:00,
2013-10-07 15:15:00,70.2,50.7,29.92,ENE,66,6.0,14.0,50,0.00,,SKC,0.01,VWS V13.00,2013-10-07 20:15:00,
2013-10-07 15:20:00,70.1,51.7,29.92,WNW,286,6.0,14.0,52,0.00,,SKC,0.01,VWS V13.00,2013-10-07 20:20:00,
2013-10-07 15:25:00,70.2,52.3,29.92,NNE,27,5.0,14.0,53,0.00,,SKC,0.01,VWS V13.00,2013-10-07 20:25:00,
2013-10-07 15:30:00,70.2,51.2,29.92,North,11,8.0,14.0,51,0.00,,SKC,0.01,VWS V13.00,2013-10-07 20:30:00,
2013-10-07 15:35:00,69.9,52.0,29.92,NE,46,5.0,12.0,53,0.00,,SKC,0.01,VWS V13.00,2013-10-07 20:35:00,
2013-10-07 15:40:00,69.8,50.9,29.92,NNE,30,9.0,14.0,51,0.00,,SKC,0.01,VWS V13.00,2013-10-07 20:40:00,
2013-10-07 15:45:00,69.7,51.3,29.92,NNE,32,10.0,16.0,52,0.00,,SKC,0.01,VWS V13.00,2013-10-07 20:45:00,
2013-10-07 15:50:00,69.5,51.1,29.92,ENE,64,8.0,16.0,52,0.00,,SKC,0.01,VWS V13.00,2013-10-07 20:50:00,
2013-10-07 15:55:00,69.4,52.5,29.92,NNE,18,6.0,16.0,55,0.00,,SKC,0.01,VWS V13.00,2013-10-07 20:55:00,
2013-10-07 16:00:00,69.4,51.0,29.92,NNE,14,13.0,16.0,52,0.00,,SKC,0.01,VWS V13.00,2013-10-07 21:00:00,
2013-10-07 16:05:00,69.3,51.5,29.92,NE,34,6.0,11.0,53,0.00,,SKC,0.01,VWS V13.00,2013-10-07 21:05:00,
2013-10-07 16:10:00,69.3,51.5,29.92,North,355,9.0,12.0,53,0.00,,SKC,0.01,VWS V13.00,2013-10-07 21:10:00,
2013-10-07 16:15:00,69.3,51.5,29.92,NE,42,9.0,12.0,53,0.00,,SKC,0.01,VWS V13.00,2013-10-07 21:15:00,
2013-10-07 16:20:00,69.2,50.8,29.92,NE,42,5.0,12.0,52,0.00,,SKC,0.01,VWS V13.00,2013-10-07 21:20:00,
2013-10-07 16:25:00,69.2,51.9,29.92,NNE,19,10.0,13.0,54,0.00,,SKC,0.01,VWS V13.00,2013-10-07 21:25:00,
2013-10-07 16:30:00,68.9,51.6,29.92,North,350,8.0,13.0,54,0.00,,SKC,0.01,VWS V13.00,2013-10-07 21:30:00,
2013-10-07 16:35:00,68.7,51.4,29.92,NNE,17,6.0,12.0,54,0.00,,SKC,0.01,VWS V13.00,2013-10-07 21:35:00,
2013-10-07 16:40:00,68.7,50.9,29.92,North,5,12.0,14.0,53,0.00,,SKC,0.01,VWS V13.00,2013-10-07 21:40:00,
2013-10-07 16:45:00,68.5,51.7,29.92,NE,49,5.0,14.0,55,0.00,,SKC,0.01,VWS V13.00,2013-10-07 21:45:00,
2013-10-07 16:50:00,68.5,50.7,29.93,ENE,59,9.0,15.0,53,0.00,,SKC,0.01,VWS V13.00,2013-10-07 21:50:00,
2013-10-07 16:55:00,68.3,51.0,29.93,NNE,26,7.0,15.0,54,0.00,,SKC,0.01,VWS V13.00,2013-10-07 21:55:00,
2013-10-07 17:00:00,67.9,50.7,29.93,NE,34,10.0,15.0,54,0.00,,SKC,0.01,VWS V13.00,2013-10-07 22:00:00,
2013-10-07 17:05:00,67.4,50.7,29.93,NE,48,7.0,11.0,55,0.00,,SKC,0.01,VWS V13.00,2013-10-07 22:05:00,
2013-10-07 17:10:00,67.1,50.9,29.94,North,355,6.0,11.0,56,0.00,,SKC,0.01,VWS V13.00,2013-10-07 22:10:00,
2013-10-07 17:15:00,67.0,50.8,29.94,NE,49,9.0,12.0,56,0.00,,SKC,0.01,VWS V13.00,2013-10-07 22:15:00,
2013-10-07 17:20:00,66.7,50.5,29.94,NE,45,4.0,12.0,56,0.00,,SKC,0.01,VWS V13.00,2013-10-07 22:20:00,
2013-10-07 17:25:00,66.6,50.9,29.94,North,355,5.0,12.0,57,0.00,,SKC,0.01,VWS V13.00,2013-10-07 22:25:00,
2013-10-07 17:30:00,66.6,50.9,29.94,NNE,16,6.0,12.0,57,0.00,,SKC,0.01,VWS V13.00,2013-10-07 22:30:00,
2013-10-07 17:35:00,66.5,51.3,29.94,North,5,4.0,7.0,58,0.00,,SKC,0.01,VWS V13.00,2013-10-07 22:35:00,
2013-10-07 17:40:00,66.3,51.1,29.94,NE,42,8.0,9.0,58,0.00,,SKC,0.01,VWS V13.00,2013-10-07 22:40:00,
2013-10-07 17:45:00,66.0,51.3,29.94,North,9,6.0,9.0,59,0.00,,SKC,0.01,VWS V13.00,2013-10-07 22:45:00,
2013-10-07 17:50:00,65.8,51.1,29.94,North,10,1.0,9.0,59,0.00,,SKC,0.01,VWS V13.00,2013-10-07 22:50:00,
2013-10-07 17:55:00,65.5,51.3,29.94,NE,40,4.0,9.0,60,0.00,,SKC,0.01,VWS V13.00,2013-10-07 22:55:00,
2013-10-07 18:00:00,65.1,51.3,29.94,NNE,26,3.0,9.0,61,0.00,,SKC,0.01,VWS V13.00,2013-10-07 23:00:00,
2013-10-07 18:05:00,64.5,51.2,29.94,NNE,23,0.0,3.0,62,0.00,,SKC,0.01,VWS V13.00,2013-10-07 23:05:00,
2013-10-07 18:10:00,63.9,51.5,29.95,North,11,0.0,4.0,64,0.00,,SKC,0.01,VWS V13.00,2013-10-07 23:10:00,
2013-10-07 18:15:00,63.4,51.4,29.95,North,11,0.0,4.0,65,0.00,,SKC,0.01,VWS V13.00,2013-10-07 23:15:00,
2013-10-07 18:20:00,62.9,51.8,29.95,NNE,26,0.0,4.0,67,0.00,,SKC,0.01,VWS V13.00,2013-10-07 23:20:00,
2013-10-07 18:25:00,62.3,51.6,29.95,NNE,15,4.0,4.0,68,0.00,,SKC,0.01,VWS V13.00,2013-10-07 23:25:00,
2013-10-07 18:30:00,61.8,51.5,29.95,NNE,18,0.0,4.0,69,0.00,,SKC,0.01,VWS V13.00,2013-10-07 23:30:00,
2013-10-07 18:35:00,61.4,51.5,29.95,NNE,22,0.0,2.0,70,0.00,,SKC,0.01,VWS V13.00,2013-10-07 23:35:00,
2013-10-07 18:40:00,60.9,51.5,29.95,NNE,14,1.0,4.0,71,0.00,,SKC,0.01,VWS V13.00,2013-10-07 23:40:00,
2013-10-07 18:45:00,60.5,51.4,29.96,NNE,30,0.0,4.0,72,0.00,,SKC,0.01,VWS V13.00,2013-10-07 23:45:00,
2013-10-07 18:50:00,60.2,51.5,29.96,NNE,31,0.0,4.0,73,0.00,,SKC,0.01,VWS V13.00,2013-10-07 23:50:00,
2013-10-07 18:55:00,59.8,51.5,29.96,NNE,28,0.0,4.0,74,0.00,,SKC,0.01,VWS V13.00,2013-10-07 23:55:00,
2013-10-07 19:00:00,59.5,51.6,29.97,NNE,28,0.0,4.0,75,0.00,,SKC,0.01,VWS V13.00,2013-10-08 00:00:00,
2013-10-07 19:05:00,59.1,51.5,29.97,NNE,17,0.0,2.0,76,0.00,,SKC,0.01,VWS V13.00,2013-10-08 00:05:00,
2013-10-07 19:10:00,58.8,51.3,29.97,North,5,1.0,4.0,76,0.00,,SKC,0.01,VWS V13.00,2013-10-08 00:10:00,
2013-10-07 19:15:00,58.6,51.4,29.97,North,5,0.0,4.0,77,0.00,,SKC,0.01,VWS V13.00,2013-10-08 00:15:00,
2013-10-07 19:20:00,58.4,51.6,29.97,North,5,0.0,4.0,78,0.00,,SKC,0.01,VWS V13.00,2013-10-08 00:20:00,
2013-10-07 19:25:00,58.1,51.3,29.98,North,5,0.0,4.0,78,0.00,,SKC,0.01,VWS V13.00,2013-10-08 00:25:00,
2013-10-07 19:30:00,57.8,51.3,29.98,North,5,0.0,4.0,79,0.00,,SKC,0.01,VWS V13.00,2013-10-08 00:30:00,
2013-10-07 19:35:00,57.6,51.5,29.98,North,5,1.0,1.0,80,0.00,,SKC,0.01,VWS V13.00,2013-10-08 00:35:00,
2013-10-07 19:40:00,57.4,51.3,29.98,North,5,0.0,5.0,80,0.00,,SKC,0.01,VWS V13.00,2013-10-08 00:40:00,
2013-10-07 19:45:00,57.3,51.2,29.98,North,9,3.0,5.0,80,0.00,,SKC,0.01,VWS V13.00,2013-10-08 00:45:00,
2013-10-07 19:50:00,57.3,51.2,29.98,NNE,26,0.0,5.0,80,0.00,,SKC,0.01,VWS V13.00,2013-10-08 00:50:00,
2013-10-07 19:55:00,57.1,51.0,29.99,NNE,18,1.0,5.0,80,0.00,,SKC,0.01,VWS V13.00,2013-10-08 00:55:00,
2013-10-07 20:00:00,57.0,51.2,29.99,NNE,13,1.0,5.0,81,0.00,,SKC,0.01,VWS V13.00,2013-10-08 01:00:00,
2013-10-07 20:05:00,56.9,51.1,29.99,NNE,30,2.0,4.0,81,0.00,,SKC,0.01,VWS V13.00,2013-10-08 01:05:00,
2013-10-07 20:10:00,56.9,51.1,29.99,NNE,16,0.0,4.0,81,0.00,,SKC,0.01,VWS V13.00,2013-10-08 01:10:00,
2013-10-07 20:15:00,56.8,51.0,29.99,NNE,26,3.0,5.0,81,0.00,,SKC,0.01,VWS V13.00,2013-10-08 01:15:00,
2013-10-07 20:20:00,56.7,50.9,30.00,NNE,16,0.0,5.0,81,0.00,,SKC,0.01,VWS V13.00,2013-10-08 01:20:00,
2013-10-07 20:25:00,56.6,50.8,30.00,NNE,17,1.0,5.0,81,0.00,,SKC,0.01,VWS V13.00,2013-10-08 01:25:00,
2013-10-07 20:30:00,56.5,51.1,30.00,NNE,22,2.0,5.0,82,0.00,,SKC,0.01,VWS V13.00,2013-10-08 01:30:00,
2013-10-07 20:35:00,56.4,51.0,30.00,NNE,22,0.0,2.0,82,0.00,,SKC,0.01,VWS V13.00,2013-10-08 01:35:00,
2013-10-07 20:40:00,56.3,50.9,30.01,NNE,22,0.0,2.0,82,0.00,,SKC,0.01,VWS V13.00,2013-10-08 01:40:00,
2013-10-07 20:45:00,56.2,50.8,30.01,NNE,22,0.0,2.0,82,0.00,,SKC,0.01,VWS V13.00,2013-10-08 01:45:00,
2013-10-07 20:50:00,56.0,50.9,30.01,NNE,22,0.0,2.0,83,0.00,,SKC,0.01,VWS V13.00,2013-10-08 01:50:00,
2013-10-07 20:55:00,55.9,50.8,30.01,NNE,22,0.0,2.0,83,0.00,,SKC,0.01,VWS V13.00,2013-10-08 01:55:00,
2013-10-07 21:00:00,55.7,50.6,30.01,NNE,22,0.0,2.0,83,0.00,,SKC,0.01,VWS V13.00,2013-10-08 02:00:00,
2013-10-07 21:05:00,55.4,50.7,30.01,NNE,22,0.0,0.0,84,0.00,,SKC,0.01,VWS V13.00,2013-10-08 02:05:00,
2013-10-07 21:10:00,55.3,50.6,30.00,NNE,22,0.0,0.0,84,0.00,,SKC,0.01,VWS V13.00,2013-10-08 02:10:00,
2013-10-07 21:15:00,55.1,50.7,30.01,NNE,22,0.0,1.0,85,0.00,,SKC,0.01,VWS V13.00,2013-10-08 02:15:00,
2013-10-07 21:20:00,55.0,50.6,30.01,NNE,22,0.0,1.0,85,0.00,,SKC,0.01,VWS V13.00,2013-10-08 02:20:00,
2013-10-07 21:25:00,54.8,50.4,30.01,NNE,22,0.0,1.0,85,0.00,,SKC,0.01,VWS V13.00,2013-10-08 02:25:00,
2013-10-07 21:30:00,54.7,50.6,30.01,NNE,22,0.0,1.0,86,0.00,,SKC,0.01,VWS V13.00,2013-10-08 02:30:00,
2013-10-07 21:35:00,54.5,50.4,30.01,NNE,22,0.0,0.0,86,0.00,,SKC,0.01,VWS V13.00,2013-10-08 02:35:00,
2013-10-07 21:40:00,54.4,50.3,30.01,NNE,22,0.0,1.0,86,0.00,,SKC,0.01,VWS V13.00,2013-10-08 02:40:00,
2013-10-07 21:45:00,54.4,50.6,30.02,NE,35,0.0,3.0,87,0.00,,SKC,0.01,VWS V13.00,2013-10-08 02:45:00,
2013-10-07 21:50:00,54.2,50.4,30.02,NE,35,0.0,3.0,87,0.00,,SKC,0.01,VWS V13.00,2013-10-08 02:50:00,
2013-10-07 21:55:00,54.1,50.3,30.02,NNE,32,0.0,3.0,87,0.00,,SKC,0.01,VWS V13.00,2013-10-08 02:55:00,
2013-10-07 22:00:00,54.0,50.2,30.02,NNE,30,0.0,3.0,87,0.00,,SKC,0.01,VWS V13.00,2013-10-08 03:00:00,
2013-10-07 22:05:00,53.8,50.3,30.01,NNE,26,0.0,1.0,88,0.00,,SKC,0.01,VWS V13.00,2013-10-08 03:05:00,
2013-10-07 22:10:00,53.8,50.3,30.02,NNE,17,0.0,2.0,88,0.00,,SKC,0.01,VWS V13.00,2013-10-08 03:10:00,
2013-10-07 22:15:00,53.9,50.4,30.01,NNE,19,0.0,2.0,88,0.00,,SKC,0.01,VWS V13.00,2013-10-08 03:15:00,
2013-10-07 22:20:00,53.8,50.3,30.01,NNE,19,0.0,2.0,88,0.00,,SKC,0.01,VWS V13.00,2013-10-08 03:20:00,
2013-10-07 22:25:00,53.7,50.2,30.01,North,5,1.0,4.0,88,0.00,,SKC,0.01,VWS V13.00,2013-10-08 03:25:00,
2013-10-07 22:30:00,53.7,50.2,30.01,North,360,0.0,4.0,88,0.00,,SKC,0.01,VWS V13.00,2013-10-08 03:30:00,
2013-10-07 22:35:00,53.7,50.5,30.01,North,355,4.0,6.0,89,0.00,,SKC,0.01,VWS V13.00,2013-10-08 03:35:00,
2013-10-07 22:40:00,53.9,50.7,30.01,North,360,4.0,7.0,89,0.00,,SKC,0.01,VWS V13.00,2013-10-08 03:40:00,
2013-10-07 22:45:00,54.0,50.5,30.01,NNE,31,4.0,7.0,88,0.00,,SKC,0.01,VWS V13.00,2013-10-08 03:45:00,
2013-10-07 22:50:00,54.0,50.5,30.01,NNE,19,0.0,7.0,88,0.00,,SKC,0.01,VWS V13.00,2013-10-08 03:50:00,
2013-10-07 22:55:00,53.9,50.4,30.01,NNE,28,0.0,7.0,88,0.00,,SKC,0.01,VWS V13.00,2013-10-08 03:55:00,
2013-10-07 23:00:00,53.7,50.2,30.01,NE,40,2.0,7.0,88,0.00,,SKC,0.01,VWS V13.00,2013-10-08 04:00:00,
2013-10-07 23:01:00,53.7,50.2,30.00,NE,40,2.0,7.0,88,0.00,,SKC,0.01,VWS V13.00,2013-10-08 04:01:00,
2013-10-07 23:02:00,53.7,50.2,30.00,NE,40,2.0,7.0,88,0.00,,SKC,0.01,VWS V13.00,2013-10-08 04:02:00,
2013-10-07 23:07:00,53.4,49.9,30.01,NE,38,2.0,5.0,88,0.00,,SKC,0.01,VWS V13.00,2013-10-08 04:07:00,
2013-10-07 23:12:00,53.2,50.0,30.00,NNE,28,1.0,5.0,89,0.00,,SKC,0.01,VWS V13.00,2013-10-08 04:12:00,
2013-10-07 23:17:00,53.2,50.0,30.00,NNE,32,3.0,5.0,89,0.00,,SKC,0.01,VWS V13.00,2013-10-08 04:17:00,
2013-10-07 23:22:00,53.2,50.0,30.00,NNE,15,3.0,5.0,89,0.00,,SKC,0.01,VWS V13.00,2013-10-08 04:22:00,
2013-10-07 23:27:00,53.4,50.2,30.00,NE,36,2.0,5.0,89,0.00,,SKC,0.01,VWS V13.00,2013-10-08 04:27:00,
2013-10-07 23:32:00,53.5,50.3,30.00,NNE,24,2.0,7.0,89,0.00,,SKC,0.01,VWS V13.00,2013-10-08 04:32:00,
2013-10-07 23:37:00,53.6,50.1,30.00,North,5,2.0,7.0,88,0.00,,SKC,0.01,VWS V13.00,2013-10-08 04:37:00,
2013-10-07 23:42:00,53.7,50.2,30.00,NNE,29,0.0,7.0,88,0.00,,SKC,0.01,VWS V13.00,2013-10-08 04:42:00,
2013-10-07 23:47:00,53.6,50.1,30.00,NNE,32,2.0,7.0,88,0.00,,SKC,0.01,VWS V13.00,2013-10-08 04:47:00,
2013-10-07 23:52:00,53.6,50.1,30.00,NE,37,2.0,7.0,88,0.00,,SKC,0.01,VWS V13.00,2013-10-08 04:52:00,
2013-10-07 23:57:00,53.6,50.1,30.00,NE,41,4.0,7.0,88,0.00,,SKC,0.01,VWS V13.00,2013-10-08 04:57:00,